Weather at Hrodna Airport

Public forecast

Using degrees Celsius for public forecast. Weather courtesy of forecast.io.

Current aviation weather report (METAR) for Hrodna Airport

Report is more than 6 hours old.

2024/05/20 13:23 (retrieved 8 hours ago)

UMMG 201323Z 09002MPS 9999 TS SCT040CB BKN066 22/13 Q1013 NOSIG

Closest aviation forecast (TAF) to Hrodna Airport

Closest forecast is Vilnius International Airport, 75.6 nm (140.1 km) NE.

2024/05/20 18:09 Correction (retrieved 3 hours ago)

TAF TAF COR EYVI 201706Z 2018/2118 VRB05KT 9000 NSC TEMPO 2018/2024 VRB15KT 5000 TSRA BKN020CB PROB40 TEMPO 2019/2024 0600 FG VV002 TEMPO 2100/2103 0600 FG VV002 TEMPO 2103/2106 5000 BR BKN005 TEMPO 2110/2118 VRB15G25KT 1500 TSRA BKN005 BKN020CB